createdAt,value
2023-04-10T00:00:01.014Z,77.01
2023-04-10T00:05:08.955Z,76.97
2023-04-10T00:10:14.855Z,77.09
2023-04-10T00:15:20.687Z,77.28
2023-04-10T00:20:26.749Z,77.47
2023-04-10T00:25:32.354Z,77.58
2023-04-10T00:30:37.949Z,77.67
2023-04-10T00:35:43.848Z,77.79
2023-04-10T00:40:49.365Z,77.86
2023-04-10T00:45:55.019Z,77.97
2023-04-10T00:51:01.161Z,78.03
2023-04-10T00:56:09.042Z,78.19
2023-04-10T01:01:14.887Z,78.33
2023-04-10T01:06:35.881Z,78.46
2023-04-10T01:11:54.296Z,78.43
2023-04-10T01:17:07.884Z,78.58
2023-04-10T01:22:17.769Z,78.62
2023-04-10T01:27:45.110Z,78.60
2023-04-10T01:32:53.780Z,78.64
2023-04-10T01:38:02.411Z,78.74
2023-04-10T01:43:12.147Z,78.86
2023-04-10T01:48:18.450Z,78.97
2023-04-10T01:53:25.246Z,78.91
2023-04-10T01:58:32.035Z,78.91
2023-04-10T02:03:38.030Z,78.86
2023-04-10T02:08:55.835Z,78.82
2023-04-10T02:14:06.206Z,78.89
2023-04-10T02:19:13.116Z,79.00
2023-04-10T02:24:19.826Z,79.11
2023-04-10T02:29:25.550Z,79.11
2023-04-10T02:34:31.206Z,79.21
2023-04-10T02:39:37.157Z,79.21
2023-04-10T02:44:43.029Z,79.19
2023-04-10T02:49:48.688Z,79.25
2023-04-10T02:54:54.669Z,79.38
2023-04-10T03:00:00.430Z,79.41
2023-04-10T03:05:08.398Z,79.55
2023-04-10T03:10:14.225Z,79.63
2023-04-10T03:15:20.298Z,79.79
2023-04-10T03:20:26.153Z,80.14
2023-04-10T03:25:33.969Z,80.23
2023-04-10T03:30:40.024Z,80.26
2023-04-10T03:35:47.036Z,80.31
2023-04-10T03:40:53.475Z,80.31
2023-04-10T03:45:59.391Z,80.35
2023-04-10T03:51:06.755Z,80.43
2023-04-10T03:56:12.453Z,80.56
2023-04-10T04:01:18.226Z,80.58
2023-04-10T04:06:24.089Z,80.42
2023-04-10T04:11:30.971Z,80.31
2023-04-10T04:16:36.837Z,80.31
2023-04-10T04:21:42.490Z,80.47
2023-04-10T04:26:48.499Z,80.54
2023-04-10T04:31:54.452Z,80.55
2023-04-10T04:37:00.830Z,80.49
2023-04-10T04:42:07.276Z,80.55
2023-04-10T04:47:13.016Z,80.43
2023-04-10T04:52:18.880Z,80.29
2023-04-10T04:57:24.649Z,80.32
2023-04-10T05:02:30.690Z,80.46
2023-04-10T05:07:36.764Z,80.60
2023-04-10T05:12:42.833Z,80.60
2023-04-10T05:17:50.642Z,80.76
2023-04-10T05:22:57.819Z,80.69
2023-04-10T05:28:03.437Z,80.69
2023-04-10T05:33:09.347Z,80.69
2023-04-10T05:38:14.973Z,80.64
2023-04-10T05:43:21.491Z,80.61
2023-04-10T05:48:28.408Z,80.57
2023-04-10T05:53:34.238Z,80.36
2023-04-10T05:58:39.930Z,80.19
2023-04-10T06:03:45.715Z,80.22
2023-04-10T06:08:51.994Z,80.11
2023-04-10T06:13:58.413Z,80.07
2023-04-10T06:19:04.214Z,80.02
2023-04-10T06:24:11.667Z,79.90
2023-04-10T06:29:18.562Z,79.69
2023-04-10T06:34:24.498Z,79.69
2023-04-10T06:39:30.282Z,79.36
2023-04-10T06:44:36.085Z,79.00
2023-04-10T06:49:41.852Z,78.63
2023-04-10T06:54:47.693Z,78.43
2023-04-10T06:59:53.340Z,78.19
2023-04-10T07:04:59.186Z,77.85
2023-04-10T07:10:06.026Z,77.37
2023-04-10T07:15:12.959Z,76.96
2023-04-10T07:20:18.900Z,76.79
2023-04-10T07:25:24.675Z,76.44
2023-04-10T07:30:30.622Z,76.08
2023-04-10T07:35:36.582Z,75.40
2023-04-10T07:40:42.342Z,75.08
2023-04-10T07:45:48.981Z,74.50
2023-04-10T07:50:55.694Z,73.71
2023-04-10T07:56:01.471Z,73.33
2023-04-10T08:01:08.313Z,72.64
2023-04-10T08:06:14.723Z,71.79
2023-04-10T08:11:28.804Z,70.61
2023-04-10T08:16:38.079Z,70.09
2023-04-10T08:21:44.032Z,69.08
2023-04-10T08:26:50.160Z,68.53
2023-04-10T08:31:56.093Z,67.60
2023-04-10T08:37:05.642Z,66.82
2023-04-10T08:42:11.367Z,66.78
2023-04-10T08:47:22.290Z,65.82
2023-04-10T08:52:31.287Z,64.51
2023-04-10T08:57:42.826Z,63.06
2023-04-10T09:02:54.845Z,62.43
2023-04-10T09:08:03.584Z,60.98
2023-04-10T09:13:09.477Z,60.75
2023-04-10T09:18:15.293Z,60.47
2023-04-10T09:23:24.094Z,60.31
2023-04-10T09:28:30.467Z,60.69
2023-04-10T09:33:36.310Z,60.35
2023-04-10T09:38:42.153Z,59.94
2023-04-10T09:43:48.310Z,60.71
2023-04-10T09:49:00.999Z,59.08
2023-04-10T09:54:07.103Z,58.93
2023-04-10T09:59:16.242Z,58.81
2023-04-10T10:04:22.285Z,58.85
2023-04-10T10:09:29.399Z,58.53
2023-04-10T10:14:38.346Z,58.68
2023-04-10T10:19:57.255Z,58.35
2023-04-10T10:25:04.602Z,58.13
2023-04-10T10:30:25.673Z,57.90
2023-04-10T10:35:36.208Z,57.36
2023-04-10T10:40:51.968Z,58.07
2023-04-10T10:46:04.383Z,57.91
2023-04-10T10:51:11.420Z,57.04
2023-04-10T10:56:38.581Z,56.70
2023-04-10T11:02:18.591Z,56.93
2023-04-10T11:08:02.516Z,56.74
2023-04-10T11:13:20.773Z,56.85
2023-04-10T11:19:14.211Z,56.87
2023-04-10T11:24:22.161Z,57.08
2023-04-10T11:29:37.209Z,57.24
2023-04-10T11:34:47.438Z,56.63
2023-04-10T11:40:07.408Z,56.06
2023-04-10T11:45:30.404Z,56.14
2023-04-10T11:50:36.359Z,55.81
2023-04-10T11:55:42.231Z,55.88
2023-04-10T12:00:55.733Z,55.52
2023-04-10T12:06:01.949Z,54.48
2023-04-10T12:11:10.022Z,53.42
2023-04-10T12:16:16.502Z,52.99
2023-04-10T12:21:22.953Z,52.85
2023-04-10T12:26:28.649Z,52.68
2023-04-10T12:31:37.199Z,52.10
2023-04-10T12:36:43.120Z,50.72
2023-04-10T12:41:48.957Z,50.85
2023-04-10T12:47:02.223Z,50.76
2023-04-10T12:52:07.873Z,50.18
2023-04-10T12:57:28.368Z,50.53
2023-04-10T13:02:34.505Z,50.42
2023-04-10T13:07:41.256Z,49.92
2023-04-10T13:12:48.379Z,49.65
2023-04-10T13:17:54.161Z,49.65
2023-04-10T13:22:59.918Z,49.62
2023-04-10T13:28:09.689Z,48.99
2023-04-10T13:33:15.643Z,48.72
2023-04-10T13:38:21.496Z,48.76
2023-04-10T13:43:27.280Z,48.92
2023-04-10T13:48:40.033Z,48.74
2023-04-10T13:53:46.536Z,48.51
2023-04-10T13:58:52.577Z,48.58
2023-04-10T14:03:58.588Z,48.72
2023-04-10T14:09:04.442Z,49.13
2023-04-10T14:14:10.325Z,48.85
2023-04-10T14:19:15.969Z,48.42
2023-04-10T14:24:21.845Z,47.87
2023-04-10T14:29:37.460Z,47.62
2023-04-10T14:34:46.571Z,47.42
2023-04-10T14:39:52.503Z,47.33
2023-04-10T14:44:58.384Z,47.22
2023-04-10T14:50:04.607Z,47.01
2023-04-10T14:55:12.049Z,47.02
2023-04-10T15:00:18.940Z,46.70
2023-04-10T15:05:25.677Z,46.68
2023-04-10T15:10:32.644Z,46.71
2023-04-10T15:15:38.674Z,46.60
2023-04-10T15:20:44.473Z,46.88
2023-04-10T15:25:50.190Z,46.84
2023-04-10T15:30:57.213Z,46.90
2023-04-10T15:36:03.561Z,46.93
2023-04-10T15:41:14.532Z,46.78
2023-04-10T15:46:20.375Z,45.79
2023-04-10T15:51:27.456Z,45.19
2023-04-10T15:56:33.985Z,44.90
2023-04-10T16:01:39.730Z,44.11
2023-04-10T16:06:45.686Z,44.39
2023-04-10T16:11:52.304Z,45.14
2023-04-10T16:16:58.153Z,45.40
2023-04-10T16:22:03.979Z,45.97
2023-04-10T16:27:09.731Z,46.58
2023-04-10T16:32:15.587Z,46.91
2023-04-10T16:37:21.386Z,47.43
2023-04-10T16:42:27.175Z,47.97
2023-04-10T16:47:33.107Z,48.82
2023-04-10T16:52:38.769Z,48.99
2023-04-10T16:57:44.943Z,49.63
2023-04-10T17:02:50.626Z,50.01
2023-04-10T17:07:57.374Z,49.78
2023-04-10T17:13:03.096Z,49.89
2023-04-10T17:18:09.116Z,49.88
2023-04-10T17:23:15.048Z,49.99
2023-04-10T17:28:21.019Z,50.24
2023-04-10T17:33:26.784Z,50.66
2023-04-10T17:38:32.605Z,51.00
2023-04-10T17:43:38.233Z,51.33
2023-04-10T17:48:44.172Z,51.68
2023-04-10T17:53:50.431Z,52.26
2023-04-10T17:58:56.630Z,53.65
2023-04-10T18:04:03.556Z,54.76
2023-04-10T18:09:09.528Z,55.14
2023-04-10T18:14:15.688Z,55.53
2023-04-10T18:19:21.418Z,56.74
2023-04-10T18:24:27.698Z,56.89
2023-04-10T18:29:34.135Z,57.34
2023-04-10T18:34:40.187Z,57.88
2023-04-10T18:39:46.195Z,57.97
2023-04-10T18:44:52.183Z,58.35
2023-04-10T18:49:58.140Z,58.29
2023-04-10T18:55:04.162Z,58.32
2023-04-10T19:00:13.545Z,59.22
2023-04-10T19:05:19.596Z,59.65
2023-04-10T19:10:25.480Z,59.53
2023-04-10T19:15:31.107Z,59.60
2023-04-10T19:20:48.921Z,59.90
2023-04-10T19:25:59.294Z,60.61
2023-04-10T19:31:05.117Z,60.71
2023-04-10T19:36:11.492Z,60.59
2023-04-10T19:41:18.025Z,60.54
2023-04-10T19:46:24.047Z,60.58
2023-04-10T19:51:29.988Z,60.96
2023-04-10T19:56:37.346Z,60.92
2023-04-10T20:01:43.140Z,61.10
2023-04-10T20:06:48.907Z,61.60
2023-04-10T20:11:54.610Z,61.64
2023-04-10T20:17:00.886Z,61.72
2023-04-10T20:22:07.393Z,62.10
2023-04-10T20:27:14.523Z,62.50
2023-04-10T20:32:20.204Z,62.95
2023-04-10T20:37:26.109Z,62.92
2023-04-10T20:42:31.796Z,63.08
2023-04-10T20:47:37.516Z,63.24
2023-04-10T20:52:43.475Z,63.42
2023-04-10T20:57:49.116Z,63.71
2023-04-10T21:02:54.981Z,64.17
2023-04-10T21:08:00.864Z,64.36
2023-04-10T21:13:06.539Z,64.61
2023-04-10T21:18:12.393Z,64.94
2023-04-10T21:23:18.088Z,65.18
2023-04-10T21:28:23.861Z,65.62
2023-04-10T21:33:29.631Z,65.89
2023-04-10T21:38:35.501Z,66.15
2023-04-10T21:43:42.737Z,66.36
2023-04-10T21:48:48.359Z,66.51
2023-04-10T21:53:54.229Z,66.93
2023-04-10T21:59:00.045Z,67.44
2023-04-10T22:04:06.477Z,67.81
2023-04-10T22:09:12.438Z,67.76
2023-04-10T22:14:20.065Z,67.79
2023-04-10T22:19:27.191Z,68.12
2023-04-10T22:24:35.256Z,68.33
2023-04-10T22:29:43.502Z,68.65
2023-04-10T22:34:53.612Z,68.74
2023-04-10T22:40:00.188Z,69.08
2023-04-10T22:45:08.048Z,69.74
2023-04-10T22:50:14.632Z,69.71
2023-04-10T22:55:21.037Z,69.96
2023-04-10T23:00:27.636Z,70.32
2023-04-10T23:05:33.539Z,70.64
2023-04-10T23:10:39.395Z,71.42
2023-04-10T23:15:50.874Z,71.04
2023-04-10T23:20:56.531Z,71.02
2023-04-10T23:26:02.602Z,71.02
2023-04-10T23:31:09.434Z,71.11
2023-04-10T23:36:15.159Z,71.37
2023-04-10T23:41:21.888Z,71.14
2023-04-10T23:46:27.829Z,71.50
2023-04-10T23:51:33.581Z,71.70
2023-04-10T23:56:39.425Z,71.96
